Elko Regional Airport

About
Name: Elko Regional Airport
Identifier:  EKO/KEKO
Serves:  Elko, Nevada
Owner:  City of Elko
Public/Private:  Public
Local Time:  15. Sep 07:24 PDT
Description: Elko Regional Airport, formerly Elko Municipal Airport, is a mile west of downtown Elko, in Elko County, Nevada.
Source: Wikipedia
Location
Runways
Identifier Length (m/ft) Surface
6/24 7,455/7,455 Asphalt
12/30 2,871/2,871 Asphalt
Statistics
Flights per Day:
4 flights
Distance: 321km (199mi)
Flights delayed:
90% (0 flights per day delayed)
Delay Average: 12 minutes
Current Weather
 7 C (Humidity: 52%)
  5kt (9km/h / 5mph) from 60°
  16km (10 mi.)
 
 METAR KEKO 151356Z AUTO 06005KT 10SM CLR 07/M02 A3006 RMK AO2 SLP140 T00721022

Current Flights

Departures
Number Departure To Airline
On time DL4237 14:27  Salt Lake City  Delta Air Lines
Arrivals
Number Arrival From Airline
Landed DL4216 20:32  Salt Lake City  Delta Air Lines

Current Delays

Departures
N/A
Arrivals
N/A

Destinations

Top Destinations
Airport Flights
per week
Seats
per week
  Salt Lake City (SLC) 29 1,470 4 210
  Reno (RNO) 0 - 0 0

Airlines & Planes

Top Airlines
Airline Flights
per Day
Seats
per Day
  SkyWest Airlines 4 203
  Britt Airways 0 6
Reach Air Medical Services 0 -
Top Plane Types
Model Flights Seats
Bombardier CRJ200 4.0/day 200/day 200
Bombardier CRJ100 0.2/day 10/day 10
Beech B200 Super King Air 0.0/day - 0